sensor_id;sensor_type;location;lat;lon;timestamp;temperature;humidity
40808;DHT22;26523;52.504;13.498;2023-05-02T00:00:27;13.50;87.10
40808;DHT22;26523;52.504;13.498;2023-05-02T00:02:53;13.50;87.40
40808;DHT22;26523;52.504;13.498;2023-05-02T00:05:19;13.40;87.60
40808;DHT22;26523;52.504;13.498;2023-05-02T00:07:45;13.40;87.40
40808;DHT22;26523;52.504;13.498;2023-05-02T00:10:11;13.30;87.70
40808;DHT22;26523;52.504;13.498;2023-05-02T00:12:37;13.30;87.20
40808;DHT22;26523;52.504;13.498;2023-05-02T00:15:03;13.20;87.50
40808;DHT22;26523;52.504;13.498;2023-05-02T00:17:29;13.20;88.10
40808;DHT22;26523;52.504;13.498;2023-05-02T00:19:55;13.20;88.40
40808;DHT22;26523;52.504;13.498;2023-05-02T00:22:21;13.20;88.30
40808;DHT22;26523;52.504;13.498;2023-05-02T00:24:46;13.10;87.80
40808;DHT22;26523;52.504;13.498;2023-05-02T00:27:12;13.10;87.90
40808;DHT22;26523;52.504;13.498;2023-05-02T00:29:38;13.10;88.10
40808;DHT22;26523;52.504;13.498;2023-05-02T00:32:05;13.10;87.40
40808;DHT22;26523;52.504;13.498;2023-05-02T00:34:31;13.10;86.80
40808;DHT22;26523;52.504;13.498;2023-05-02T00:36:57;13.00;86.80
40808;DHT22;26523;52.504;13.498;2023-05-02T00:39:23;13.00;86.80
40808;DHT22;26523;52.504;13.498;2023-05-02T00:41:49;12.90;87.10
40808;DHT22;26523;52.504;13.498;2023-05-02T00:44:20;12.90;87.10
40808;DHT22;26523;52.504;13.498;2023-05-02T00:46:46;13.00;86.30
40808;DHT22;26523;52.504;13.498;2023-05-02T00:49:12;13.00;86.30
40808;DHT22;26523;52.504;13.498;2023-05-02T00:51:39;13.00;86.10
40808;DHT22;26523;52.504;13.498;2023-05-02T00:54:05;13.00;86.40
40808;DHT22;26523;52.504;13.498;2023-05-02T00:56:30;13.10;86.50
40808;DHT22;26523;52.504;13.498;2023-05-02T00:58:56;13.00;87.10
40808;DHT22;26523;52.504;13.498;2023-05-02T01:01:35;13.10;87.10
40808;DHT22;26523;52.504;13.498;2023-05-02T01:11:52;13.20;87.30
40808;DHT22;26523;52.504;13.498;2023-05-02T01:14:21;13.30;87.80
40808;DHT22;26523;52.504;13.498;2023-05-02T01:16:48;13.30;88.10
40808;DHT22;26523;52.504;13.498;2023-05-02T01:19:46;13.20;88.60
40808;DHT22;26523;52.504;13.498;2023-05-02T01:22:14;13.20;89.00
40808;DHT22;26523;52.504;13.498;2023-05-02T01:25:04;13.20;89.50
40808;DHT22;26523;52.504;13.498;2023-05-02T01:30:16;13.10;90.20
40808;DHT22;26523;52.504;13.498;2023-05-02T01:32:45;13.00;90.20
40808;DHT22;26523;52.504;13.498;2023-05-02T01:35:14;13.00;90.70
40808;DHT22;26523;52.504;13.498;2023-05-02T01:37:42;13.00;90.90
40808;DHT22;26523;52.504;13.498;2023-05-02T01:40:10;12.90;91.00
40808;DHT22;26523;52.504;13.498;2023-05-02T01:42:37;12.90;91.30
40808;DHT22;26523;52.504;13.498;2023-05-02T01:45:05;13.00;91.50
40808;DHT22;26523;52.504;13.498;2023-05-02T01:47:33;13.00;91.40
40808;DHT22;26523;52.504;13.498;2023-05-02T01:50:02;13.10;91.70
40808;DHT22;26523;52.504;13.498;2023-05-02T01:52:30;13.10;91.60
40808;DHT22;26523;52.504;13.498;2023-05-02T01:54:58;13.20;91.60
40808;DHT22;26523;52.504;13.498;2023-05-02T01:57:25;13.20;91.60
40808;DHT22;26523;52.504;13.498;2023-05-02T01:59:54;13.30;91.70
40808;DHT22;26523;52.504;13.498;2023-05-02T02:02:25;13.20;91.90
40808;DHT22;26523;52.504;13.498;2023-05-02T02:04:53;13.10;92.10
40808;DHT22;26523;52.504;13.498;2023-05-02T02:07:20;13.00;92.10
40808;DHT22;26523;52.504;13.498;2023-05-02T02:09:45;13.00;92.40
40808;DHT22;26523;52.504;13.498;2023-05-02T02:12:16;13.00;92.40
40808;DHT22;26523;52.504;13.498;2023-05-02T02:17:42;13.00;92.60
40808;DHT22;26523;52.504;13.498;2023-05-02T02:20:12;12.90;92.70
40808;DHT22;26523;52.504;13.498;2023-05-02T02:22:41;12.90;92.80
40808;DHT22;26523;52.504;13.498;2023-05-02T02:25:10;12.90;93.00
40808;DHT22;26523;52.504;13.498;2023-05-02T02:27:37;12.80;93.10
40808;DHT22;26523;52.504;13.498;2023-05-02T02:30:03;12.80;93.10
40808;DHT22;26523;52.504;13.498;2023-05-02T02:32:29;12.80;93.30
40808;DHT22;26523;52.504;13.498;2023-05-02T02:34:55;12.70;93.30
40808;DHT22;26523;52.504;13.498;2023-05-02T02:37:32;12.80;93.30
40808;DHT22;26523;52.504;13.498;2023-05-02T02:40:33;12.70;93.50
40808;DHT22;26523;52.504;13.498;2023-05-02T02:43:07;12.60;93.60
40808;DHT22;26523;52.504;13.498;2023-05-02T02:46:11;12.50;93.90
40808;DHT22;26523;52.504;13.498;2023-05-02T02:48:53;12.30;94.10
40808;DHT22;26523;52.504;13.498;2023-05-02T02:51:37;12.30;94.30
40808;DHT22;26523;52.504;13.498;2023-05-02T02:57:06;12.10;94.60
40808;DHT22;26523;52.504;13.498;2023-05-02T02:59:41;12.10;94.90
40808;DHT22;26523;52.504;13.498;2023-05-02T03:02:14;12.10;94.80
40808;DHT22;26523;52.504;13.498;2023-05-02T03:04:43;12.00;95.00
40808;DHT22;26523;52.504;13.498;2023-05-02T03:07:10;12.00;95.10
40808;DHT22;26523;52.504;13.498;2023-05-02T03:09:48;11.90;95.10
40808;DHT22;26523;52.504;13.498;2023-05-02T03:12:13;11.80;95.30
40808;DHT22;26523;52.504;13.498;2023-05-02T03:14:40;11.80;95.40
40808;DHT22;26523;52.504;13.498;2023-05-02T03:17:06;11.70;95.50
40808;DHT22;26523;52.504;13.498;2023-05-02T03:19:35;11.70;95.40
40808;DHT22;26523;52.504;13.498;2023-05-02T03:22:02;11.70;95.50
40808;DHT22;26523;52.504;13.498;2023-05-02T03:24:27;11.70;95.60
40808;DHT22;26523;52.504;13.498;2023-05-02T03:26:54;11.70;95.70
40808;DHT22;26523;52.504;13.498;2023-05-02T03:29:21;11.60;95.90
40808;DHT22;26523;52.504;13.498;2023-05-02T03:31:57;11.60;96.00
40808;DHT22;26523;52.504;13.498;2023-05-02T03:34:22;11.60;96.00
40808;DHT22;26523;52.504;13.498;2023-05-02T03:36:48;11.60;96.20
40808;DHT22;26523;52.504;13.498;2023-05-02T03:39:14;11.50;96.20
40808;DHT22;26523;52.504;13.498;2023-05-02T03:41:40;11.50;96.60
40808;DHT22;26523;52.504;13.498;2023-05-02T03:44:06;11.50;96.40
40808;DHT22;26523;52.504;13.498;2023-05-02T03:46:32;11.50;96.60
40808;DHT22;26523;52.504;13.498;2023-05-02T03:48:57;11.50;96.60
40808;DHT22;26523;52.504;13.498;2023-05-02T03:51:23;11.50;96.50
40808;DHT22;26523;52.504;13.498;2023-05-02T03:53:49;11.50;96.60
40808;DHT22;26523;52.504;13.498;2023-05-02T03:56:18;11.50;96.80
40808;DHT22;26523;52.504;13.498;2023-05-02T03:58:48;11.50;96.70
40808;DHT22;26523;52.504;13.498;2023-05-02T04:01:14;11.40;96.80
40808;DHT22;26523;52.504;13.498;2023-05-02T04:03:40;11.40;97.00
40808;DHT22;26523;52.504;13.498;2023-05-02T04:06:06;11.50;97.00
40808;DHT22;26523;52.504;13.498;2023-05-02T04:08:32;11.50;97.00
40808;DHT22;26523;52.504;13.498;2023-05-02T04:10:58;11.50;97.10
40808;DHT22;26523;52.504;13.498;2023-05-02T04:13:23;11.50;97.20
40808;DHT22;26523;52.504;13.498;2023-05-02T04:15:49;11.60;97.30
40808;DHT22;26523;52.504;13.498;2023-05-02T04:18:15;11.60;97.10
40808;DHT22;26523;52.504;13.498;2023-05-02T04:20:43;11.70;97.10
40808;DHT22;26523;52.504;13.498;2023-05-02T04:23:12;11.80;97.10
40808;DHT22;26523;52.504;13.498;2023-05-02T04:25:37;11.80;97.20
40808;DHT22;26523;52.504;13.498;2023-05-02T04:28:04;11.80;97.20
40808;DHT22;26523;52.504;13.498;2023-05-02T04:30:30;11.90;97.20
40808;DHT22;26523;52.504;13.498;2023-05-02T04:32:55;12.00;97.10
40808;DHT22;26523;52.504;13.498;2023-05-02T04:35:21;12.00;97.10
40808;DHT22;26523;52.504;13.498;2023-05-02T04:37:47;12.00;97.20
40808;DHT22;26523;52.504;13.498;2023-05-02T04:40:13;12.20;97.20
40808;DHT22;26523;52.504;13.498;2023-05-02T04:42:38;12.20;97.20
40808;DHT22;26523;52.504;13.498;2023-05-02T04:45:05;12.30;97.20
40808;DHT22;26523;52.504;13.498;2023-05-02T04:47:31;12.40;97.10
40808;DHT22;26523;52.504;13.498;2023-05-02T04:49:56;12.50;97.00
40808;DHT22;26523;52.504;13.498;2023-05-02T04:52:22;12.50;96.90
40808;DHT22;26523;52.504;13.498;2023-05-02T04:54:48;12.70;96.80
40808;DHT22;26523;52.504;13.498;2023-05-02T04:57:13;12.90;96.60
40808;DHT22;26523;52.504;13.498;2023-05-02T04:59:39;13.10;96.20
40808;DHT22;26523;52.504;13.498;2023-05-02T05:02:05;13.20;95.90
40808;DHT22;26523;52.504;13.498;2023-05-02T05:04:32;13.40;95.80
40808;DHT22;26523;52.504;13.498;2023-05-02T05:06:58;13.50;95.70
40808;DHT22;26523;52.504;13.498;2023-05-02T05:09:24;13.50;95.80
40808;DHT22;26523;52.504;13.498;2023-05-02T05:11:50;13.60;95.20
40808;DHT22;26523;52.504;13.498;2023-05-02T05:14:15;13.70;95.10
40808;DHT22;26523;52.504;13.498;2023-05-02T05:16:41;13.80;95.00
40808;DHT22;26523;52.504;13.498;2023-05-02T05:19:07;13.80;95.00
40808;DHT22;26523;52.504;13.498;2023-05-02T05:21:32;13.90;94.90
40808;DHT22;26523;52.504;13.498;2023-05-02T05:23:58;13.90;94.70
40808;DHT22;26523;52.504;13.498;2023-05-02T05:26:24;14.00;94.60
40808;DHT22;26523;52.504;13.498;2023-05-02T05:28:50;14.10;94.50
40808;DHT22;26523;52.504;13.498;2023-05-02T05:31:16;14.20;94.40
40808;DHT22;26523;52.504;13.498;2023-05-02T05:33:42;14.20;94.20
40808;DHT22;26523;52.504;13.498;2023-05-02T05:36:12;14.20;94.30
40808;DHT22;26523;52.504;13.498;2023-05-02T05:38:39;14.20;94.30
40808;DHT22;26523;52.504;13.498;2023-05-02T05:41:05;14.10;94.30
40808;DHT22;26523;52.504;13.498;2023-05-02T05:43:32;14.20;94.40
40808;DHT22;26523;52.504;13.498;2023-05-02T05:45:58;14.20;94.50
40808;DHT22;26523;52.504;13.498;2023-05-02T05:48:24;14.30;94.50
40808;DHT22;26523;52.504;13.498;2023-05-02T05:50:50;14.40;94.30
40808;DHT22;26523;52.504;13.498;2023-05-02T05:53:17;14.60;94.20
40808;DHT22;26523;52.504;13.498;2023-05-02T05:55:42;14.60;94.10
40808;DHT22;26523;52.504;13.498;2023-05-02T05:58:08;14.70;94.10
40808;DHT22;26523;52.504;13.498;2023-05-02T06:00:34;14.90;93.90
40808;DHT22;26523;52.504;13.498;2023-05-02T06:03:00;15.10;93.80
40808;DHT22;26523;52.504;13.498;2023-05-02T06:05:26;15.40;93.70
40808;DHT22;26523;52.504;13.498;2023-05-02T06:07:52;15.40;93.60
40808;DHT22;26523;52.504;13.498;2023-05-02T06:10:18;15.90;93.30
40808;DHT22;26523;52.504;13.498;2023-05-02T06:12:43;17.40;91.70
40808;DHT22;26523;52.504;13.498;2023-05-02T06:15:09;19.30;88.80
40808;DHT22;26523;52.504;13.498;2023-05-02T06:17:35;20.70;84.70
40808;DHT22;26523;52.504;13.498;2023-05-02T06:20:00;22.20;80.20
40808;DHT22;26523;52.504;13.498;2023-05-02T06:22:26;23.00;76.80
40808;DHT22;26523;52.504;13.498;2023-05-02T06:24:52;23.80;74.60
40808;DHT22;26523;52.504;13.498;2023-05-02T06:27:17;24.90;71.40
40808;DHT22;26523;52.504;13.498;2023-05-02T06:29:43;25.40;69.80
40808;DHT22;26523;52.504;13.498;2023-05-02T06:32:09;25.80;68.20
40808;DHT22;26523;52.504;13.498;2023-05-02T06:34:34;26.30;66.50
40808;DHT22;26523;52.504;13.498;2023-05-02T06:37:00;27.00;65.10
40808;DHT22;26523;52.504;13.498;2023-05-02T06:39:26;27.20;64.30
40808;DHT22;26523;52.504;13.498;2023-05-02T06:42:00;27.80;62.90
40808;DHT22;26523;52.504;13.498;2023-05-02T06:44:26;28.40;61.90
40808;DHT22;26523;52.504;13.498;2023-05-02T06:46:52;28.70;61.20
40808;DHT22;26523;52.504;13.498;2023-05-02T06:49:17;28.70;60.60
40808;DHT22;26523;52.504;13.498;2023-05-02T06:51:43;29.10;60.40
40808;DHT22;26523;52.504;13.498;2023-05-02T06:54:09;29.30;59.90
40808;DHT22;26523;52.504;13.498;2023-05-02T06:56:34;29.70;59.40
40808;DHT22;26523;52.504;13.498;2023-05-02T06:59:00;30.20;58.80
40808;DHT22;26523;52.504;13.498;2023-05-02T07:01:26;31.00;57.50
40808;DHT22;26523;52.504;13.498;2023-05-02T07:03:52;31.00;56.80
40808;DHT22;26523;52.504;13.498;2023-05-02T07:06:18;31.30;56.30
40808;DHT22;26523;52.504;13.498;2023-05-02T07:08:44;31.30;55.90
40808;DHT22;26523;52.504;13.498;2023-05-02T07:11:10;29.80;57.10
40808;DHT22;26523;52.504;13.498;2023-05-02T07:13:36;27.60;59.50
40808;DHT22;26523;52.504;13.498;2023-05-02T07:16:01;26.10;62.10
40808;DHT22;26523;52.504;13.498;2023-05-02T07:18:27;24.90;63.80
40808;DHT22;26523;52.504;13.498;2023-05-02T07:20:53;23.50;66.60
40808;DHT22;26523;52.504;13.498;2023-05-02T07:23:19;23.00;68.30
40808;DHT22;26523;52.504;13.498;2023-05-02T07:25:46;23.40;67.50
40808;DHT22;26523;52.504;13.498;2023-05-02T07:28:12;23.60;67.20
40808;DHT22;26523;52.504;13.498;2023-05-02T07:30:38;23.60;67.20
40808;DHT22;26523;52.504;13.498;2023-05-02T07:33:04;23.40;67.70
40808;DHT22;26523;52.504;13.498;2023-05-02T07:35:29;23.60;67.30
40808;DHT22;26523;52.504;13.498;2023-05-02T07:37:55;24.20;66.90
40808;DHT22;26523;52.504;13.498;2023-05-02T07:40:21;24.10;66.20
40808;DHT22;26523;52.504;13.498;2023-05-02T07:42:47;23.50;67.50
40808;DHT22;26523;52.504;13.498;2023-05-02T07:45:13;22.70;68.70
40808;DHT22;26523;52.504;13.498;2023-05-02T07:47:39;21.60;70.90
40808;DHT22;26523;52.504;13.498;2023-05-02T07:50:05;20.90;72.90
40808;DHT22;26523;52.504;13.498;2023-05-02T07:52:31;20.30;74.60
40808;DHT22;26523;52.504;13.498;2023-05-02T07:54:56;19.70;76.40
40808;DHT22;26523;52.504;13.498;2023-05-02T07:57:22;19.20;77.40
40808;DHT22;26523;52.504;13.498;2023-05-02T07:59:48;18.90;78.50
40808;DHT22;26523;52.504;13.498;2023-05-02T08:02:14;18.50;79.80
40808;DHT22;26523;52.504;13.498;2023-05-02T08:04:42;18.10;81.20
40808;DHT22;26523;52.504;13.498;2023-05-02T08:07:07;17.80;82.20
40808;DHT22;26523;52.504;13.498;2023-05-02T08:09:33;17.40;83.30
40808;DHT22;26523;52.504;13.498;2023-05-02T08:11:59;17.30;84.20
40808;DHT22;26523;52.504;13.498;2023-05-02T08:14:26;17.20;84.90
40808;DHT22;26523;52.504;13.498;2023-05-02T08:16:52;16.90;85.10
40808;DHT22;26523;52.504;13.498;2023-05-02T08:19:18;16.70;85.90
40808;DHT22;26523;52.504;13.498;2023-05-02T08:21:43;16.70;86.70
40808;DHT22;26523;52.504;13.498;2023-05-02T08:24:09;16.70;87.40
40808;DHT22;26523;52.504;13.498;2023-05-02T08:26:35;16.70;87.50
40808;DHT22;26523;52.504;13.498;2023-05-02T08:29:00;16.80;87.60
40808;DHT22;26523;52.504;13.498;2023-05-02T08:31:27;16.70;87.90
40808;DHT22;26523;52.504;13.498;2023-05-02T08:33:53;16.90;88.00
40808;DHT22;26523;52.504;13.498;2023-05-02T08:36:18;16.80;87.80
40808;DHT22;26523;52.504;13.498;2023-05-02T08:38:45;16.90;87.80
40808;DHT22;26523;52.504;13.498;2023-05-02T08:41:13;16.80;88.50
40808;DHT22;26523;52.504;13.498;2023-05-02T08:43:39;16.70;89.00
40808;DHT22;26523;52.504;13.498;2023-05-02T08:46:06;16.80;89.40
40808;DHT22;26523;52.504;13.498;2023-05-02T08:48:35;16.70;89.80
40808;DHT22;26523;52.504;13.498;2023-05-02T08:51:02;16.50;90.00
40808;DHT22;26523;52.504;13.498;2023-05-02T08:53:33;16.40;90.50
40808;DHT22;26523;52.504;13.498;2023-05-02T08:55:59;16.30;90.60
40808;DHT22;26523;52.504;13.498;2023-05-02T08:58:25;16.30;90.90
40808;DHT22;26523;52.504;13.498;2023-05-02T09:00:51;16.20;91.10
40808;DHT22;26523;52.504;13.498;2023-05-02T09:08:28;16.30;91.20
40808;DHT22;26523;52.504;13.498;2023-05-02T09:10:54;16.20;91.10
40808;DHT22;26523;52.504;13.498;2023-05-02T09:13:35;16.10;91.30
40808;DHT22;26523;52.504;13.498;2023-05-02T09:18:49;16.00;92.00
40808;DHT22;26523;52.504;13.498;2023-05-02T09:21:17;16.00;92.20
40808;DHT22;26523;52.504;13.498;2023-05-02T09:23:45;16.00;92.00
40808;DHT22;26523;52.504;13.498;2023-05-02T09:26:22;16.20;92.10
40808;DHT22;26523;52.504;13.498;2023-05-02T09:28:53;16.40;91.80
40808;DHT22;26523;52.504;13.498;2023-05-02T09:31:26;16.50;91.70
40808;DHT22;26523;52.504;13.498;2023-05-02T09:33:54;16.60;91.90
40808;DHT22;26523;52.504;13.498;2023-05-02T09:36:20;16.70;91.80
40808;DHT22;26523;52.504;13.498;2023-05-02T09:38:48;17.10;91.40
40808;DHT22;26523;52.504;13.498;2023-05-02T09:41:14;17.40;90.50
40808;DHT22;26523;52.504;13.498;2023-05-02T09:43:40;17.50;90.40
40808;DHT22;26523;52.504;13.498;2023-05-02T09:46:08;17.10;90.70
40808;DHT22;26523;52.504;13.498;2023-05-02T09:48:54;16.80;91.30
40808;DHT22;26523;52.504;13.498;2023-05-02T09:51:21;16.50;91.80
40808;DHT22;26523;52.504;13.498;2023-05-02T09:53:48;16.20;92.30
40808;DHT22;26523;52.504;13.498;2023-05-02T09:56:14;15.90;92.90
40808;DHT22;26523;52.504;13.498;2023-05-02T09:58:40;15.80;93.30
40808;DHT22;26523;52.504;13.498;2023-05-02T10:01:05;15.60;93.50
40808;DHT22;26523;52.504;13.498;2023-05-02T10:03:36;15.60;93.80
40808;DHT22;26523;52.504;13.498;2023-05-02T10:06:02;15.70;93.90
40808;DHT22;26523;52.504;13.498;2023-05-02T10:08:32;15.60;93.80
40808;DHT22;26523;52.504;13.498;2023-05-02T10:10:58;15.80;93.80
40808;DHT22;26523;52.504;13.498;2023-05-02T10:13:26;16.10;93.30
40808;DHT22;26523;52.504;13.498;2023-05-02T10:16:06;16.30;93.00
40808;DHT22;26523;52.504;13.498;2023-05-02T10:18:47;16.40;92.80
40808;DHT22;26523;52.504;13.498;2023-05-02T10:21:19;16.40;92.60
40808;DHT22;26523;52.504;13.498;2023-05-02T10:23:49;16.50;92.70
40808;DHT22;26523;52.504;13.498;2023-05-02T10:26:18;16.80;92.40
40808;DHT22;26523;52.504;13.498;2023-05-02T10:28:46;17.00;92.30
40808;DHT22;26523;52.504;13.498;2023-05-02T10:31:13;16.90;91.80
40808;DHT22;26523;52.504;13.498;2023-05-02T10:33:40;16.80;92.00
40808;DHT22;26523;52.504;13.498;2023-05-02T10:36:08;16.60;92.40
40808;DHT22;26523;52.504;13.498;2023-05-02T10:38:35;16.30;93.80
40808;DHT22;26523;52.504;13.498;2023-05-02T10:41:20;16.10;94.60
40808;DHT22;26523;52.504;13.498;2023-05-02T10:43:50;15.80;94.70
40808;DHT22;26523;52.504;13.498;2023-05-02T10:46:39;15.80;94.90
40808;DHT22;26523;52.504;13.498;2023-05-02T10:49:06;15.80;94.80
40808;DHT22;26523;52.504;13.498;2023-05-02T10:51:33;16.00;94.50
40808;DHT22;26523;52.504;13.498;2023-05-02T10:54:21;16.20;94.20
40808;DHT22;26523;52.504;13.498;2023-05-02T10:59:38;16.20;93.80
40808;DHT22;26523;52.504;13.498;2023-05-02T11:05:04;15.70;94.40
40808;DHT22;26523;52.504;13.498;2023-05-02T11:07:34;15.80;94.30
40808;DHT22;26523;52.504;13.498;2023-05-02T11:18:09;15.80;94.00
40808;DHT22;26523;52.504;13.498;2023-05-02T11:20:40;15.50;94.40
40808;DHT22;26523;52.504;13.498;2023-05-02T11:25:45;15.60;94.20
40808;DHT22;26523;52.504;13.498;2023-05-02T11:30:59;15.40;94.20
40808;DHT22;26523;52.504;13.498;2023-05-02T11:33:26;15.20;94.20
40808;DHT22;26523;52.504;13.498;2023-05-02T11:35:52;15.00;94.40
40808;DHT22;26523;52.504;13.498;2023-05-02T11:38:19;14.90;94.40
40808;DHT22;26523;52.504;13.498;2023-05-02T11:40:50;14.80;94.20
40808;DHT22;26523;52.504;13.498;2023-05-02T11:43:17;15.00;93.90
40808;DHT22;26523;52.504;13.498;2023-05-02T11:45:43;15.20;93.50
40808;DHT22;26523;52.504;13.498;2023-05-02T11:48:12;15.40;92.90
40808;DHT22;26523;52.504;13.498;2023-05-02T11:50:48;15.30;92.60
40808;DHT22;26523;52.504;13.498;2023-05-02T11:53:20;15.40;92.60
40808;DHT22;26523;52.504;13.498;2023-05-02T11:55:51;15.50;92.20
40808;DHT22;26523;52.504;13.498;2023-05-02T11:58:19;15.50;92.10
40808;DHT22;26523;52.504;13.498;2023-05-02T12:00:46;15.50;91.70
40808;DHT22;26523;52.504;13.498;2023-05-02T12:03:23;15.60;91.10
40808;DHT22;26523;52.504;13.498;2023-05-02T12:05:49;15.70;90.90
40808;DHT22;26523;52.504;13.498;2023-05-02T12:08:26;15.70;90.50
40808;DHT22;26523;52.504;13.498;2023-05-02T12:10:54;15.80;90.30
40808;DHT22;26523;52.504;13.498;2023-05-02T12:13:23;15.80;89.80
40808;DHT22;26523;52.504;13.498;2023-05-02T12:15:50;15.70;89.60
40808;DHT22;26523;52.504;13.498;2023-05-02T12:18:16;15.70;89.60
40808;DHT22;26523;52.504;13.498;2023-05-02T12:20:43;15.70;89.10
40808;DHT22;26523;52.504;13.498;2023-05-02T12:23:10;15.70;89.10
40808;DHT22;26523;52.504;13.498;2023-05-02T12:25:40;15.60;89.10
40808;DHT22;26523;52.504;13.498;2023-05-02T12:28:06;15.50;89.50
40808;DHT22;26523;52.504;13.498;2023-05-02T12:30:34;15.50;89.40
40808;DHT22;26523;52.504;13.498;2023-05-02T12:33:03;15.60;89.00
40808;DHT22;26523;52.504;13.498;2023-05-02T12:35:29;15.70;88.60
40808;DHT22;26523;52.504;13.498;2023-05-02T12:38:08;15.70;88.80
40808;DHT22;26523;52.504;13.498;2023-05-02T12:40:34;15.80;88.80
40808;DHT22;26523;52.504;13.498;2023-05-02T12:43:04;15.60;88.00
40808;DHT22;26523;52.504;13.498;2023-05-02T12:45:32;15.50;88.10
40808;DHT22;26523;52.504;13.498;2023-05-02T12:48:23;15.60;88.30
40808;DHT22;26523;52.504;13.498;2023-05-02T12:50:49;15.80;87.50
40808;DHT22;26523;52.504;13.498;2023-05-02T12:53:15;15.90;87.30
40808;DHT22;26523;52.504;13.498;2023-05-02T12:55:41;16.10;86.30
40808;DHT22;26523;52.504;13.498;2023-05-02T12:58:09;16.20;86.30
40808;DHT22;26523;52.504;13.498;2023-05-02T13:00:39;16.10;86.40
40808;DHT22;26523;52.504;13.498;2023-05-02T13:03:06;16.20;86.30
40808;DHT22;26523;52.504;13.498;2023-05-02T13:05:33;16.10;86.20
40808;DHT22;26523;52.504;13.498;2023-05-02T13:07:59;16.00;86.50
40808;DHT22;26523;52.504;13.498;2023-05-02T13:10:26;15.70;86.20
40808;DHT22;26523;52.504;13.498;2023-05-02T13:12:52;15.50;87.00
40808;DHT22;26523;52.504;13.498;2023-05-02T13:15:18;15.30;87.20
40808;DHT22;26523;52.504;13.498;2023-05-02T13:17:44;15.00;87.70
40808;DHT22;26523;52.504;13.498;2023-05-02T13:20:10;15.10;87.20
40808;DHT22;26523;52.504;13.498;2023-05-02T13:22:36;14.80;87.80
40808;DHT22;26523;52.504;13.498;2023-05-02T13:25:03;14.70;88.30
40808;DHT22;26523;52.504;13.498;2023-05-02T13:27:29;14.80;88.20
40808;DHT22;26523;52.504;13.498;2023-05-02T13:29:55;15.00;87.40
40808;DHT22;26523;52.504;13.498;2023-05-02T13:32:21;15.20;87.00
40808;DHT22;26523;52.504;13.498;2023-05-02T13:34:47;15.30;86.40
40808;DHT22;26523;52.504;13.498;2023-05-02T13:37:12;15.30;85.50
40808;DHT22;26523;52.504;13.498;2023-05-02T13:39:38;15.30;85.80
40808;DHT22;26523;52.504;13.498;2023-05-02T13:42:04;15.50;84.70
40808;DHT22;26523;52.504;13.498;2023-05-02T13:44:30;15.40;84.00
40808;DHT22;26523;52.504;13.498;2023-05-02T13:46:56;15.30;84.50
40808;DHT22;26523;52.504;13.498;2023-05-02T13:49:22;15.30;84.80
40808;DHT22;26523;52.504;13.498;2023-05-02T13:51:48;15.20;84.60
40808;DHT22;26523;52.504;13.498;2023-05-02T13:54:13;15.20;84.50
40808;DHT22;26523;52.504;13.498;2023-05-02T13:56:40;15.20;84.40
40808;DHT22;26523;52.504;13.498;2023-05-02T13:59:06;15.20;84.10
40808;DHT22;26523;52.504;13.498;2023-05-02T14:01:32;15.10;84.30
40808;DHT22;26523;52.504;13.498;2023-05-02T14:03:57;14.90;84.40
40808;DHT22;26523;52.504;13.498;2023-05-02T14:06:23;14.90;84.40
40808;DHT22;26523;52.504;13.498;2023-05-02T14:08:49;14.60;84.80
40808;DHT22;26523;52.504;13.498;2023-05-02T14:11:18;14.80;84.90
40808;DHT22;26523;52.504;13.498;2023-05-02T14:13:43;14.90;84.20
40808;DHT22;26523;52.504;13.498;2023-05-02T14:16:10;14.90;83.80
40808;DHT22;26523;52.504;13.498;2023-05-02T14:18:35;14.70;84.70
40808;DHT22;26523;52.504;13.498;2023-05-02T14:21:01;14.60;84.20
40808;DHT22;26523;52.504;13.498;2023-05-02T14:23:28;14.70;85.00
40808;DHT22;26523;52.504;13.498;2023-05-02T14:25:54;14.60;83.90
40808;DHT22;26523;52.504;13.498;2023-05-02T14:28:20;14.80;83.20
40808;DHT22;26523;52.504;13.498;2023-05-02T14:30:49;14.90;83.00
40808;DHT22;26523;52.504;13.498;2023-05-02T14:33:15;15.00;82.70
40808;DHT22;26523;52.504;13.498;2023-05-02T14:35:41;15.10;82.20
40808;DHT22;26523;52.504;13.498;2023-05-02T14:38:07;14.90;82.10
40808;DHT22;26523;52.504;13.498;2023-05-02T14:40:32;14.80;83.10
40808;DHT22;26523;52.504;13.498;2023-05-02T14:42:58;14.60;82.70
40808;DHT22;26523;52.504;13.498;2023-05-02T14:45:24;14.60;83.40
40808;DHT22;26523;52.504;13.498;2023-05-02T14:47:50;14.50;83.30
40808;DHT22;26523;52.504;13.498;2023-05-02T14:50:16;14.40;83.10
40808;DHT22;26523;52.504;13.498;2023-05-02T14:52:43;14.40;83.10
40808;DHT22;26523;52.504;13.498;2023-05-02T14:55:11;14.50;83.50
40808;DHT22;26523;52.504;13.498;2023-05-02T14:57:37;14.40;83.10
40808;DHT22;26523;52.504;13.498;2023-05-02T15:00:04;14.20;83.10
40808;DHT22;26523;52.504;13.498;2023-05-02T15:02:32;14.30;83.00
40808;DHT22;26523;52.504;13.498;2023-05-02T15:04:58;14.20;83.30
40808;DHT22;26523;52.504;13.498;2023-05-02T15:07:24;14.20;83.10
40808;DHT22;26523;52.504;13.498;2023-05-02T15:09:50;14.10;83.30
40808;DHT22;26523;52.504;13.498;2023-05-02T15:12:16;14.00;83.20
40808;DHT22;26523;52.504;13.498;2023-05-02T15:14:41;14.00;83.10
40808;DHT22;26523;52.504;13.498;2023-05-02T15:17:07;13.90;83.50
40808;DHT22;26523;52.504;13.498;2023-05-02T15:19:32;13.70;84.40
40808;DHT22;26523;52.504;13.498;2023-05-02T15:21:58;13.60;84.60
40808;DHT22;26523;52.504;13.498;2023-05-02T15:24:24;13.60;84.40
40808;DHT22;26523;52.504;13.498;2023-05-02T15:26:50;13.60;84.10
40808;DHT22;26523;52.504;13.498;2023-05-02T15:29:16;13.50;84.30
40808;DHT22;26523;52.504;13.498;2023-05-02T15:31:42;13.50;84.70
40808;DHT22;26523;52.504;13.498;2023-05-02T15:34:08;13.40;85.10
40808;DHT22;26523;52.504;13.498;2023-05-02T15:36:34;13.30;85.30
40808;DHT22;26523;52.504;13.498;2023-05-02T15:39:03;13.20;84.40
40808;DHT22;26523;52.504;13.498;2023-05-02T15:41:29;13.00;84.80
40808;DHT22;26523;52.504;13.498;2023-05-02T15:43:56;13.00;84.60
40808;DHT22;26523;52.504;13.498;2023-05-02T15:46:21;13.20;84.50
40808;DHT22;26523;52.504;13.498;2023-05-02T15:48:47;13.30;83.90
40808;DHT22;26523;52.504;13.498;2023-05-02T15:51:13;13.20;83.50
40808;DHT22;26523;52.504;13.498;2023-05-02T15:53:39;13.20;82.90
40808;DHT22;26523;52.504;13.498;2023-05-02T15:56:13;13.10;83.20
40808;DHT22;26523;52.504;13.498;2023-05-02T15:58:39;13.00;83.10
40808;DHT22;26523;52.504;13.498;2023-05-02T16:01:05;13.00;84.00